sensor_id;sensor_type;location;lat;lon;timestamp;P1;durP1;ratioP1;P2;durP2;ratioP2
14903;SDS011;7543;53.148;8.234;2024-03-29T00:00:52;2.90;;;0.90;;
14903;SDS011;7543;53.148;8.234;2024-03-29T00:03:21;0.97;;;0.70;;
14903;SDS011;7543;53.148;8.234;2024-03-29T00:05:48;1.83;;;0.93;;
14903;SDS011;7543;53.148;8.234;2024-03-29T00:08:15;2.90;;;0.80;;
14903;SDS011;7543;53.148;8.234;2024-03-29T00:10:43;3.70;;;0.87;;
14903;SDS011;7543;53.148;8.234;2024-03-29T00:13:13;1.83;;;1.27;;
14903;SDS011;7543;53.148;8.234;2024-03-29T00:15:40;1.90;;;0.93;;
14903;SDS011;7543;53.148;8.234;2024-03-29T00:18:08;1.00;;;0.63;;
14903;SDS011;7543;53.148;8.234;2024-03-29T00:20:36;2.50;;;0.80;;
14903;SDS011;7543;53.148;8.234;2024-03-29T00:23:04;1.13;;;0.83;;
14903;SDS011;7543;53.148;8.234;2024-03-29T00:25:31;1.97;;;0.67;;
14903;SDS011;7543;53.148;8.234;2024-03-29T00:27:59;1.70;;;1.03;;
14903;SDS011;7543;53.148;8.234;2024-03-29T00:30:26;1.03;;;0.77;;
14903;SDS011;7543;53.148;8.234;2024-03-29T00:32:53;4.33;;;0.93;;
14903;SDS011;7543;53.148;8.234;2024-03-29T00:35:21;5.77;;;1.33;;
14903;SDS011;7543;53.148;8.234;2024-03-29T00:37:49;3.70;;;0.90;;
14903;SDS011;7543;53.148;8.234;2024-03-29T00:40:17;2.00;;;0.97;;
14903;SDS011;7543;53.148;8.234;2024-03-29T00:42:44;1.60;;;0.70;;
14903;SDS011;7543;53.148;8.234;2024-03-29T00:45:11;4.80;;;1.00;;
14903;SDS011;7543;53.148;8.234;2024-03-29T00:47:39;2.73;;;0.83;;
14903;SDS011;7543;53.148;8.234;2024-03-29T00:50:06;1.73;;;0.90;;
14903;SDS011;7543;53.148;8.234;2024-03-29T00:52:34;2.10;;;0.77;;
14903;SDS011;7543;53.148;8.234;2024-03-29T00:55:03;2.80;;;0.80;;
14903;SDS011;7543;53.148;8.234;2024-03-29T00:57:31;5.40;;;1.00;;
14903;SDS011;7543;53.148;8.234;2024-03-29T00:59:58;2.27;;;0.90;;
14903;SDS011;7543;53.148;8.234;2024-03-29T01:02:26;1.97;;;0.73;;
14903;SDS011;7543;53.148;8.234;2024-03-29T01:04:53;1.87;;;0.47;;
14903;SDS011;7543;53.148;8.234;2024-03-29T01:07:20;1.70;;;0.80;;
14903;SDS011;7543;53.148;8.234;2024-03-29T01:09:48;1.70;;;0.73;;
14903;SDS011;7543;53.148;8.234;2024-03-29T01:12:16;4.27;;;0.90;;
14903;SDS011;7543;53.148;8.234;2024-03-29T01:14:44;2.70;;;0.97;;
14903;SDS011;7543;53.148;8.234;2024-03-29T01:17:11;1.53;;;0.90;;
14903;SDS011;7543;53.148;8.234;2024-03-29T01:19:39;2.33;;;0.67;;
14903;SDS011;7543;53.148;8.234;2024-03-29T01:22:06;1.53;;;0.83;;
14903;SDS011;7543;53.148;8.234;2024-03-29T01:24:33;2.80;;;0.90;;
14903;SDS011;7543;53.148;8.234;2024-03-29T01:27:01;2.47;;;0.97;;
14903;SDS011;7543;53.148;8.234;2024-03-29T01:29:30;3.33;;;0.80;;
14903;SDS011;7543;53.148;8.234;2024-03-29T01:31:57;2.23;;;0.90;;
14903;SDS011;7543;53.148;8.234;2024-03-29T01:34:24;3.10;;;0.70;;
14903;SDS011;7543;53.148;8.234;2024-03-29T01:36:52;1.77;;;0.90;;
14903;SDS011;7543;53.148;8.234;2024-03-29T01:39:19;2.73;;;0.70;;
14903;SDS011;7543;53.148;8.234;2024-03-29T01:41:47;2.07;;;0.93;;
14903;SDS011;7543;53.148;8.234;2024-03-29T01:44:14;1.50;;;0.80;;
14903;SDS011;7543;53.148;8.234;2024-03-29T01:46:44;1.77;;;0.90;;
14903;SDS011;7543;53.148;8.234;2024-03-29T01:49:14;2.57;;;0.70;;
14903;SDS011;7543;53.148;8.234;2024-03-29T01:51:43;0.90;;;0.63;;
14903;SDS011;7543;53.148;8.234;2024-03-29T01:54:12;1.80;;;0.70;;
14903;SDS011;7543;53.148;8.234;2024-03-29T01:56:40;1.93;;;0.80;;
14903;SDS011;7543;53.148;8.234;2024-03-29T01:59:10;3.33;;;0.93;;
14903;SDS011;7543;53.148;8.234;2024-03-29T02:01:41;3.07;;;0.67;;
14903;SDS011;7543;53.148;8.234;2024-03-29T02:04:11;4.50;;;0.93;;
14903;SDS011;7543;53.148;8.234;2024-03-29T02:06:39;3.30;;;0.80;;
14903;SDS011;7543;53.148;8.234;2024-03-29T02:09:08;1.20;;;0.70;;
14903;SDS011;7543;53.148;8.234;2024-03-29T02:11:36;4.07;;;0.80;;
14903;SDS011;7543;53.148;8.234;2024-03-29T02:14:04;2.00;;;0.80;;
14903;SDS011;7543;53.148;8.234;2024-03-29T02:16:33;2.83;;;0.77;;
14903;SDS011;7543;53.148;8.234;2024-03-29T02:19:01;2.63;;;1.00;;
14903;SDS011;7543;53.148;8.234;2024-03-29T02:21:31;1.73;;;0.70;;
14903;SDS011;7543;53.148;8.234;2024-03-29T02:24:05;2.30;;;0.70;;
14903;SDS011;7543;53.148;8.234;2024-03-29T02:26:34;1.60;;;0.80;;
14903;SDS011;7543;53.148;8.234;2024-03-29T02:29:08;4.30;;;0.80;;
14903;SDS011;7543;53.148;8.234;2024-03-29T02:31:37;2.83;;;0.80;;
14903;SDS011;7543;53.148;8.234;2024-03-29T02:34:05;2.60;;;0.83;;
14903;SDS011;7543;53.148;8.234;2024-03-29T02:36:34;3.37;;;1.10;;
14903;SDS011;7543;53.148;8.234;2024-03-29T02:39:04;3.43;;;0.87;;
14903;SDS011;7543;53.148;8.234;2024-03-29T02:41:32;2.10;;;0.80;;
14903;SDS011;7543;53.148;8.234;2024-03-29T02:44:01;1.03;;;0.60;;
14903;SDS011;7543;53.148;8.234;2024-03-29T02:46:29;2.53;;;0.83;;
14903;SDS011;7543;53.148;8.234;2024-03-29T02:48:58;2.67;;;0.80;;
14903;SDS011;7543;53.148;8.234;2024-03-29T02:51:25;1.07;;;0.70;;
14903;SDS011;7543;53.148;8.234;2024-03-29T02:53:53;0.60;;;0.47;;
14903;SDS011;7543;53.148;8.234;2024-03-29T02:56:22;2.17;;;0.97;;
14903;SDS011;7543;53.148;8.234;2024-03-29T02:58:51;2.40;;;0.80;;
14903;SDS011;7543;53.148;8.234;2024-03-29T03:01:18;0.90;;;0.63;;
14903;SDS011;7543;53.148;8.234;2024-03-29T03:03:46;1.67;;;0.50;;
14903;SDS011;7543;53.148;8.234;2024-03-29T03:06:14;1.50;;;0.77;;
14903;SDS011;7543;53.148;8.234;2024-03-29T03:08:42;1.30;;;0.67;;
14903;SDS011;7543;53.148;8.234;2024-03-29T03:11:29;2.37;;;0.70;;
14903;SDS011;7543;53.148;8.234;2024-03-29T03:13:57;2.13;;;0.53;;
14903;SDS011;7543;53.148;8.234;2024-03-29T03:16:26;1.73;;;0.90;;
14903;SDS011;7543;53.148;8.234;2024-03-29T03:18:54;1.53;;;0.70;;
14903;SDS011;7543;53.148;8.234;2024-03-29T03:21:21;1.40;;;0.67;;
14903;SDS011;7543;53.148;8.234;2024-03-29T03:23:50;2.53;;;0.70;;
14903;SDS011;7543;53.148;8.234;2024-03-29T03:26:17;0.97;;;0.40;;
14903;SDS011;7543;53.148;8.234;2024-03-29T03:28:47;3.70;;;0.70;;
14903;SDS011;7543;53.148;8.234;2024-03-29T03:31:14;3.03;;;0.83;;
14903;SDS011;7543;53.148;8.234;2024-03-29T03:33:42;1.27;;;0.70;;
14903;SDS011;7543;53.148;8.234;2024-03-29T03:36:10;3.97;;;0.80;;
14903;SDS011;7543;53.148;8.234;2024-03-29T03:38:38;5.37;;;1.00;;
14903;SDS011;7543;53.148;8.234;2024-03-29T03:41:06;2.67;;;0.67;;
14903;SDS011;7543;53.148;8.234;2024-03-29T03:43:34;1.10;;;0.60;;
14903;SDS011;7543;53.148;8.234;2024-03-29T03:46:03;4.43;;;0.60;;
14903;SDS011;7543;53.148;8.234;2024-03-29T03:48:32;2.23;;;0.70;;
14903;SDS011;7543;53.148;8.234;2024-03-29T03:50:59;1.93;;;0.77;;
14903;SDS011;7543;53.148;8.234;2024-03-29T03:53:27;1.13;;;0.50;;
14903;SDS011;7543;53.148;8.234;2024-03-29T03:55:54;1.23;;;0.60;;
14903;SDS011;7543;53.148;8.234;2024-03-29T03:58:23;2.80;;;1.00;;
14903;SDS011;7543;53.148;8.234;2024-03-29T04:00:50;1.07;;;0.70;;
14903;SDS011;7543;53.148;8.234;2024-03-29T04:03:20;3.33;;;0.57;;
14903;SDS011;7543;53.148;8.234;2024-03-29T04:05:47;3.53;;;0.57;;
14903;SDS011;7543;53.148;8.234;2024-03-29T04:08:15;3.13;;;0.90;;
14903;SDS011;7543;53.148;8.234;2024-03-29T04:10:44;3.00;;;1.07;;
14903;SDS011;7543;53.148;8.234;2024-03-29T04:13:13;3.23;;;0.70;;
14903;SDS011;7543;53.148;8.234;2024-03-29T04:15:40;2.90;;;0.80;;
14903;SDS011;7543;53.148;8.234;2024-03-29T04:18:08;4.63;;;0.47;;
14903;SDS011;7543;53.148;8.234;2024-03-29T04:20:37;1.47;;;0.60;;
14903;SDS011;7543;53.148;8.234;2024-03-29T04:23:05;2.57;;;0.90;;
14903;SDS011;7543;53.148;8.234;2024-03-29T04:25:33;0.83;;;0.57;;
14903;SDS011;7543;53.148;8.234;2024-03-29T04:28:01;0.40;;;0.40;;
14903;SDS011;7543;53.148;8.234;2024-03-29T04:30:29;3.47;;;0.83;;
14903;SDS011;7543;53.148;8.234;2024-03-29T04:32:57;2.33;;;0.60;;
14903;SDS011;7543;53.148;8.234;2024-03-29T04:35:24;2.17;;;0.50;;
14903;SDS011;7543;53.148;8.234;2024-03-29T04:37:54;0.90;;;0.60;;
14903;SDS011;7543;53.148;8.234;2024-03-29T04:40:22;1.47;;;0.63;;
14903;SDS011;7543;53.148;8.234;2024-03-29T04:42:51;3.20;;;0.80;;
14903;SDS011;7543;53.148;8.234;2024-03-29T04:45:19;3.60;;;0.80;;
14903;SDS011;7543;53.148;8.234;2024-03-29T04:47:47;3.80;;;0.70;;
14903;SDS011;7543;53.148;8.234;2024-03-29T04:50:16;4.20;;;0.93;;
14903;SDS011;7543;53.148;8.234;2024-03-29T04:52:44;3.23;;;0.80;;
14903;SDS011;7543;53.148;8.234;2024-03-29T04:55:14;2.37;;;0.70;;
14903;SDS011;7543;53.148;8.234;2024-03-29T04:57:42;3.60;;;0.67;;
14903;SDS011;7543;53.148;8.234;2024-03-29T05:00:11;3.17;;;0.70;;
14903;SDS011;7543;53.148;8.234;2024-03-29T05:02:39;2.23;;;0.60;;
14903;SDS011;7543;53.148;8.234;2024-03-29T05:05:08;4.73;;;0.90;;
14903;SDS011;7543;53.148;8.234;2024-03-29T05:07:36;0.87;;;0.60;;
14903;SDS011;7543;53.148;8.234;2024-03-29T05:10:05;2.03;;;0.63;;
14903;SDS011;7543;53.148;8.234;2024-03-29T05:12:36;1.53;;;0.60;;
14903;SDS011;7543;53.148;8.234;2024-03-29T05:15:04;2.43;;;0.77;;
14903;SDS011;7543;53.148;8.234;2024-03-29T05:17:34;2.70;;;1.07;;
14903;SDS011;7543;53.148;8.234;2024-03-29T05:20:04;3.07;;;0.70;;
14903;SDS011;7543;53.148;8.234;2024-03-29T05:22:33;2.50;;;0.70;;
14903;SDS011;7543;53.148;8.234;2024-03-29T05:25:02;1.47;;;0.60;;
14903;SDS011;7543;53.148;8.234;2024-03-29T05:27:30;3.03;;;1.30;;
14903;SDS011;7543;53.148;8.234;2024-03-29T05:30:01;6.97;;;1.00;;
14903;SDS011;7543;53.148;8.234;2024-03-29T05:32:29;2.17;;;0.67;;
14903;SDS011;7543;53.148;8.234;2024-03-29T05:34:58;3.80;;;0.80;;
14903;SDS011;7543;53.148;8.234;2024-03-29T05:37:26;2.33;;;0.80;;
14903;SDS011;7543;53.148;8.234;2024-03-29T05:39:54;1.30;;;0.80;;
14903;SDS011;7543;53.148;8.234;2024-03-29T05:42:26;1.17;;;0.53;;
14903;SDS011;7543;53.148;8.234;2024-03-29T05:44:54;1.80;;;0.57;;
14903;SDS011;7543;53.148;8.234;2024-03-29T05:47:24;1.70;;;0.77;;
14903;SDS011;7543;53.148;8.234;2024-03-29T05:49:53;2.90;;;0.87;;
14903;SDS011;7543;53.148;8.234;2024-03-29T05:52:21;2.97;;;0.63;;
14903;SDS011;7543;53.148;8.234;2024-03-29T05:54:50;2.97;;;0.70;;
14903;SDS011;7543;53.148;8.234;2024-03-29T05:57:18;5.80;;;0.57;;
14903;SDS011;7543;53.148;8.234;2024-03-29T05:59:46;7.13;;;0.70;;
14903;SDS011;7543;53.148;8.234;2024-03-29T06:02:15;2.40;;;0.70;;
14903;SDS011;7543;53.148;8.234;2024-03-29T06:04:44;1.50;;;0.60;;
14903;SDS011;7543;53.148;8.234;2024-03-29T06:07:14;6.73;;;0.90;;
14903;SDS011;7543;53.148;8.234;2024-03-29T06:09:42;1.07;;;0.60;;
14903;SDS011;7543;53.148;8.234;2024-03-29T06:12:11;2.10;;;0.50;;
14903;SDS011;7543;53.148;8.234;2024-03-29T06:14:39;2.57;;;0.47;;
14903;SDS011;7543;53.148;8.234;2024-03-29T06:17:21;0.63;;;0.50;;
14903;SDS011;7543;53.148;8.234;2024-03-29T06:19:55;1.23;;;0.50;;
14903;SDS011;7543;53.148;8.234;2024-03-29T06:22:24;2.33;;;0.50;;
14903;SDS011;7543;53.148;8.234;2024-03-29T06:24:56;1.80;;;0.80;;
14903;SDS011;7543;53.148;8.234;2024-03-29T06:27:28;1.80;;;0.93;;
14903;SDS011;7543;53.148;8.234;2024-03-29T06:29:56;1.00;;;0.70;;
14903;SDS011;7543;53.148;8.234;2024-03-29T06:32:25;2.23;;;0.73;;
14903;SDS011;7543;53.148;8.234;2024-03-29T06:34:54;2.37;;;0.50;;
14903;SDS011;7543;53.148;8.234;2024-03-29T06:37:22;2.27;;;0.70;;
14903;SDS011;7543;53.148;8.234;2024-03-29T06:39:51;0.97;;;0.40;;
14903;SDS011;7543;53.148;8.234;2024-03-29T06:42:20;1.00;;;0.33;;
14903;SDS011;7543;53.148;8.234;2024-03-29T06:44:48;1.27;;;0.40;;
14903;SDS011;7543;53.148;8.234;2024-03-29T06:47:17;0.83;;;0.30;;
14903;SDS011;7543;53.148;8.234;2024-03-29T06:49:45;1.20;;;0.63;;
14903;SDS011;7543;53.148;8.234;2024-03-29T06:52:15;1.33;;;0.37;;
14903;SDS011;7543;53.148;8.234;2024-03-29T06:54:43;5.53;;;0.60;;
14903;SDS011;7543;53.148;8.234;2024-03-29T06:57:12;2.53;;;0.90;;
14903;SDS011;7543;53.148;8.234;2024-03-29T06:59:43;2.27;;;0.57;;
14903;SDS011;7543;53.148;8.234;2024-03-29T07:02:12;4.27;;;0.80;;
14903;SDS011;7543;53.148;8.234;2024-03-29T07:04:40;1.80;;;0.47;;
14903;SDS011;7543;53.148;8.234;2024-03-29T07:07:08;2.30;;;0.70;;
14903;SDS011;7543;53.148;8.234;2024-03-29T07:09:38;0.73;;;0.30;;
14903;SDS011;7543;53.148;8.234;2024-03-29T07:12:06;1.53;;;0.47;;
14903;SDS011;7543;53.148;8.234;2024-03-29T07:14:35;1.90;;;0.47;;
14903;SDS011;7543;53.148;8.234;2024-03-29T07:17:03;0.70;;;0.40;;
14903;SDS011;7543;53.148;8.234;2024-03-29T07:19:32;2.00;;;0.70;;
14903;SDS011;7543;53.148;8.234;2024-03-29T07:22:00;1.50;;;0.60;;
14903;SDS011;7543;53.148;8.234;2024-03-29T07:24:28;1.47;;;0.40;;
14903;SDS011;7543;53.148;8.234;2024-03-29T07:26:58;1.73;;;1.00;;
14903;SDS011;7543;53.148;8.234;2024-03-29T07:29:26;1.90;;;0.70;;
14903;SDS011;7543;53.148;8.234;2024-03-29T07:31:54;1.40;;;0.47;;
14903;SDS011;7543;53.148;8.234;2024-03-29T07:34:23;0.53;;;0.53;;
14903;SDS011;7543;53.148;8.234;2024-03-29T07:36:52;1.23;;;0.67;;
14903;SDS011;7543;53.148;8.234;2024-03-29T07:39:20;1.77;;;0.60;;
14903;SDS011;7543;53.148;8.234;2024-03-29T07:41:49;1.43;;;0.30;;
14903;SDS011;7543;53.148;8.234;2024-03-29T07:44:19;0.50;;;0.50;;
14903;SDS011;7543;53.148;8.234;2024-03-29T07:46:47;2.20;;;0.40;;
14903;SDS011;7543;53.148;8.234;2024-03-29T07:49:15;1.27;;;0.50;;
14903;SDS011;7543;53.148;8.234;2024-03-29T07:51:47;0.93;;;0.60;;
14903;SDS011;7543;53.148;8.234;2024-03-29T07:54:16;2.43;;;0.73;;
14903;SDS011;7543;53.148;8.234;2024-03-29T07:56:44;1.47;;;0.50;;
14903;SDS011;7543;53.148;8.234;2024-03-29T07:59:13;1.50;;;0.80;;
14903;SDS011;7543;53.148;8.234;2024-03-29T08:01:43;0.90;;;0.40;;
14903;SDS011;7543;53.148;8.234;2024-03-29T08:04:11;1.97;;;0.50;;
14903;SDS011;7543;53.148;8.234;2024-03-29T08:06:40;1.00;;;0.50;;
14903;SDS011;7543;53.148;8.234;2024-03-29T08:09:08;0.90;;;0.50;;
14903;SDS011;7543;53.148;8.234;2024-03-29T08:11:40;1.93;;;0.53;;
14903;SDS011;7543;53.148;8.234;2024-03-29T08:14:08;1.53;;;0.70;;
14903;SDS011;7543;53.148;8.234;2024-03-29T08:16:37;1.07;;;0.50;;
14903;SDS011;7543;53.148;8.234;2024-03-29T08:19:07;0.53;;;0.50;;
14903;SDS011;7543;53.148;8.234;2024-03-29T08:21:35;1.90;;;0.50;;
14903;SDS011;7543;53.148;8.234;2024-03-29T08:24:04;4.33;;;0.60;;
14903;SDS011;7543;53.148;8.234;2024-03-29T08:26:32;0.50;;;0.40;;
14903;SDS011;7543;53.148;8.234;2024-03-29T08:29:01;1.73;;;0.67;;
14903;SDS011;7543;53.148;8.234;2024-03-29T08:31:30;1.30;;;0.70;;
14903;SDS011;7543;53.148;8.234;2024-03-29T08:33:58;1.00;;;0.60;;
14903;SDS011;7543;53.148;8.234;2024-03-29T08:36:29;1.30;;;0.43;;
14903;SDS011;7543;53.148;8.234;2024-03-29T08:38:58;1.37;;;0.60;;
14903;SDS011;7543;53.148;8.234;2024-03-29T08:41:26;1.20;;;0.70;;
14903;SDS011;7543;53.148;8.234;2024-03-29T08:43:54;1.80;;;0.80;;
14903;SDS011;7543;53.148;8.234;2024-03-29T08:46:23;2.30;;;0.60;;
14903;SDS011;7543;53.148;8.234;2024-03-29T08:48:51;3.17;;;0.80;;
14903;SDS011;7543;53.148;8.234;2024-03-29T08:51:19;5.27;;;0.97;;
14903;SDS011;7543;53.148;8.234;2024-03-29T08:53:49;4.10;;;0.73;;
14903;SDS011;7543;53.148;8.234;2024-03-29T08:56:18;3.90;;;0.87;;
14903;SDS011;7543;53.148;8.234;2024-03-29T08:58:46;4.13;;;0.80;;
14903;SDS011;7543;53.148;8.234;2024-03-29T09:01:14;2.67;;;0.90;;
14903;SDS011;7543;53.148;8.234;2024-03-29T09:03:43;2.40;;;0.80;;
14903;SDS011;7543;53.148;8.234;2024-03-29T09:06:11;0.63;;;0.50;;
14903;SDS011;7543;53.148;8.234;2024-03-29T09:08:40;1.93;;;0.90;;
14903;SDS011;7543;53.148;8.234;2024-03-29T09:11:10;0.60;;;0.47;;
14903;SDS011;7543;53.148;8.234;2024-03-29T09:13:38;3.50;;;0.70;;
14903;SDS011;7543;53.148;8.234;2024-03-29T09:16:06;0.87;;;0.70;;
14903;SDS011;7543;53.148;8.234;2024-03-29T09:18:35;0.93;;;0.60;;
14903;SDS011;7543;53.148;8.234;2024-03-29T09:21:03;2.90;;;0.87;;
14903;SDS011;7543;53.148;8.234;2024-03-29T09:23:31;2.27;;;0.73;;
14903;SDS011;7543;53.148;8.234;2024-03-29T09:26:00;1.33;;;0.67;;
14903;SDS011;7543;53.148;8.234;2024-03-29T09:28:29;0.50;;;0.50;;
14903;SDS011;7543;53.148;8.234;2024-03-29T09:31:00;1.30;;;0.67;;
14903;SDS011;7543;53.148;8.234;2024-03-29T09:33:29;0.77;;;0.53;;
14903;SDS011;7543;53.148;8.234;2024-03-29T09:35:57;0.47;;;0.47;;
14903;SDS011;7543;53.148;8.234;2024-03-29T09:38:26;1.30;;;0.70;;
14903;SDS011;7543;53.148;8.234;2024-03-29T09:40:56;2.03;;;0.50;;
14903;SDS011;7543;53.148;8.234;2024-03-29T09:43:32;2.33;;;0.80;;
14903;SDS011;7543;53.148;8.234;2024-03-29T09:46:00;1.10;;;0.60;;
14903;SDS011;7543;53.148;8.234;2024-03-29T09:48:29;1.50;;;0.80;;
14903;SDS011;7543;53.148;8.234;2024-03-29T09:51:03;1.43;;;0.70;;
14903;SDS011;7543;53.148;8.234;2024-03-29T09:53:32;3.80;;;0.70;;
14903;SDS011;7543;53.148;8.234;2024-03-29T09:56:03;0.70;;;0.60;;
14903;SDS011;7543;53.148;8.234;2024-03-29T09:58:34;2.90;;;0.90;;
14903;SDS011;7543;53.148;8.234;2024-03-29T10:01:04;1.60;;;1.00;;
14903;SDS011;7543;53.148;8.234;2024-03-29T10:03:35;1.50;;;1.10;;
14903;SDS011;7543;53.148;8.234;2024-03-29T10:06:06;3.23;;;1.07;;
14903;SDS011;7543;53.148;8.234;2024-03-29T10:08:35;1.33;;;0.90;;
14903;SDS011;7543;53.148;8.234;2024-03-29T10:11:04;2.30;;;1.10;;
14903;SDS011;7543;53.148;8.234;2024-03-29T10:13:34;0.73;;;0.63;;
14903;SDS011;7543;53.148;8.234;2024-03-29T10:16:02;1.17;;;0.60;;
14903;SDS011;7543;53.148;8.234;2024-03-29T10:18:31;2.23;;;0.70;;
14903;SDS011;7543;53.148;8.234;2024-03-29T10:21:00;3.83;;;0.80;;
14903;SDS011;7543;53.148;8.234;2024-03-29T10:23:30;2.20;;;0.87;;
14903;SDS011;7543;53.148;8.234;2024-03-29T10:25:59;2.47;;;0.80;;
14903;SDS011;7543;53.148;8.234;2024-03-29T10:28:29;2.30;;;1.17;;
14903;SDS011;7543;53.148;8.234;2024-03-29T10:31:00;4.03;;;0.90;;
14903;SDS011;7543;53.148;8.234;2024-03-29T10:33:30;4.17;;;1.20;;
14903;SDS011;7543;53.148;8.234;2024-03-29T10:35:59;1.13;;;0.90;;
14903;SDS011;7543;53.148;8.234;2024-03-29T10:38:28;1.67;;;1.10;;
14903;SDS011;7543;53.148;8.234;2024-03-29T10:40:56;1.87;;;0.90;;
14903;SDS011;7543;53.148;8.234;2024-03-29T10:43:25;2.10;;;1.10;;
14903;SDS011;7543;53.148;8.234;2024-03-29T10:45:53;2.37;;;1.20;;
14903;SDS011;7543;53.148;8.234;2024-03-29T10:48:27;3.97;;;1.10;;
14903;SDS011;7543;53.148;8.234;2024-03-29T10:50:55;1.83;;;1.20;;
14903;SDS011;7543;53.148;8.234;2024-03-29T10:53:25;1.40;;;0.80;;
14903;SDS011;7543;53.148;8.234;2024-03-29T10:55:56;1.73;;;1.00;;
14903;SDS011;7543;53.148;8.234;2024-03-29T10:58:28;1.70;;;1.20;;
14903;SDS011;7543;53.148;8.234;2024-03-29T11:00:58;1.53;;;0.90;;
14903;SDS011;7543;53.148;8.234;2024-03-29T11:03:31;3.13;;;1.13;;
14903;SDS011;7543;53.148;8.234;2024-03-29T11:06:02;4.10;;;1.10;;
14903;SDS011;7543;53.148;8.234;2024-03-29T11:08:31;1.97;;;1.00;;
14903;SDS011;7543;53.148;8.234;2024-03-29T11:11:02;2.70;;;0.90;;
14903;SDS011;7543;53.148;8.234;2024-03-29T11:13:33;2.03;;;1.13;;
14903;SDS011;7543;53.148;8.234;2024-03-29T11:16:04;3.27;;;1.20;;
14903;SDS011;7543;53.148;8.234;2024-03-29T11:18:34;2.50;;;0.87;;
14903;SDS011;7543;53.148;8.234;2024-03-29T11:21:02;2.23;;;1.10;;
14903;SDS011;7543;53.148;8.234;2024-03-29T11:23:33;2.03;;;1.40;;
14903;SDS011;7543;53.148;8.234;2024-03-29T11:26:01;2.63;;;1.20;;
14903;SDS011;7543;53.148;8.234;2024-03-29T11:28:30;1.87;;;1.20;;
14903;SDS011;7543;53.148;8.234;2024-03-29T11:31:00;4.03;;;1.30;;
14903;SDS011;7543;53.148;8.234;2024-03-29T11:33:31;2.87;;;1.40;;
14903;SDS011;7543;53.148;8.234;2024-03-29T11:36:09;3.33;;;1.50;;
14903;SDS011;7543;53.148;8.234;2024-03-29T11:38:38;3.33;;;1.40;;
14903;SDS011;7543;53.148;8.234;2024-03-29T11:41:10;1.90;;;1.00;;
14903;SDS011;7543;53.148;8.234;2024-03-29T11:43:39;2.17;;;1.10;;
14903;SDS011;7543;53.148;8.234;2024-03-29T11:46:10;4.47;;;1.43;;
14903;SDS011;7543;53.148;8.234;2024-03-29T11:48:39;2.07;;;1.00;;
14903;SDS011;7543;53.148;8.234;2024-03-29T11:51:11;2.07;;;1.17;;
14903;SDS011;7543;53.148;8.234;2024-03-29T11:53:41;2.77;;;1.20;;
14903;SDS011;7543;53.148;8.234;2024-03-29T11:56:10;3.43;;;1.27;;
14903;SDS011;7543;53.148;8.234;2024-03-29T11:58:40;1.83;;;0.93;;
14903;SDS011;7543;53.148;8.234;2024-03-29T12:01:08;1.10;;;0.90;;
14903;SDS011;7543;53.148;8.234;2024-03-29T12:03:37;3.10;;;1.40;;
14903;SDS011;7543;53.148;8.234;2024-03-29T12:06:06;2.07;;;0.97;;
14903;SDS011;7543;53.148;8.234;2024-03-29T12:08:37;2.20;;;1.10;;
14903;SDS011;7543;53.148;8.234;2024-03-29T12:11:06;1.93;;;1.10;;
14903;SDS011;7543;53.148;8.234;2024-03-29T12:13:35;1.87;;;1.00;;
14903;SDS011;7543;53.148;8.234;2024-03-29T12:16:04;1.73;;;1.00;;
14903;SDS011;7543;53.148;8.234;2024-03-29T12:18:34;1.70;;;1.10;;
14903;SDS011;7543;53.148;8.234;2024-03-29T12:21:03;2.50;;;1.10;;
14903;SDS011;7543;53.148;8.234;2024-03-29T12:23:33;2.20;;;1.40;;
14903;SDS011;7543;53.148;8.234;2024-03-29T12:26:01;1.90;;;1.10;;
14903;SDS011;7543;53.148;8.234;2024-03-29T12:28:30;1.00;;;0.90;;
14903;SDS011;7543;53.148;8.234;2024-03-29T12:31:00;1.53;;;1.00;;
14903;SDS011;7543;53.148;8.234;2024-03-29T12:33:30;1.57;;;0.90;;
14903;SDS011;7543;53.148;8.234;2024-03-29T12:35:58;1.33;;;1.20;;
14903;SDS011;7543;53.148;8.234;2024-03-29T12:38:27;2.37;;;1.30;;
14903;SDS011;7543;53.148;8.234;2024-03-29T12:40:58;1.80;;;1.00;;
14903;SDS011;7543;53.148;8.234;2024-03-29T12:43:28;1.20;;;1.03;;
14903;SDS011;7543;53.148;8.234;2024-03-29T12:45:56;2.10;;;1.00;;
14903;SDS011;7543;53.148;8.234;2024-03-29T12:48:24;2.47;;;1.10;;
14903;SDS011;7543;53.148;8.234;2024-03-29T12:50:53;1.00;;;0.80;;
14903;SDS011;7543;53.148;8.234;2024-03-29T12:53:22;1.20;;;0.90;;
14903;SDS011;7543;53.148;8.234;2024-03-29T12:55:50;2.00;;;1.13;;
14903;SDS011;7543;53.148;8.234;2024-03-29T12:58:21;2.27;;;1.13;;
14903;SDS011;7543;53.148;8.234;2024-03-29T13:00:49;1.67;;;1.00;;
14903;SDS011;7543;53.148;8.234;2024-03-29T13:03:17;3.07;;;1.00;;
14903;SDS011;7543;53.148;8.234;2024-03-29T13:05:46;1.50;;;1.20;;
14903;SDS011;7543;53.148;8.234;2024-03-29T13:08:14;1.90;;;1.20;;
14903;SDS011;7543;53.148;8.234;2024-03-29T13:10:43;1.77;;;1.37;;
14903;SDS011;7543;53.148;8.234;2024-03-29T13:13:12;1.33;;;1.10;;
14903;SDS011;7543;53.148;8.234;2024-03-29T13:15:41;2.17;;;1.20;;
14903;SDS011;7543;53.148;8.234;2024-03-29T13:18:14;1.37;;;1.23;;
14903;SDS011;7543;53.148;8.234;2024-03-29T13:20:43;2.00;;;1.13;;
14903;SDS011;7543;53.148;8.234;2024-03-29T13:23:12;2.80;;;1.20;;
14903;SDS011;7543;53.148;8.234;2024-03-29T13:25:41;1.23;;;1.13;;
14903;SDS011;7543;53.148;8.234;2024-03-29T13:28:09;2.47;;;1.30;;
14903;SDS011;7543;53.148;8.234;2024-03-29T13:30:38;2.40;;;1.50;;
14903;SDS011;7543;53.148;8.234;2024-03-29T13:33:11;2.70;;;1.20;;
14903;SDS011;7543;53.148;8.234;2024-03-29T13:35:41;2.50;;;1.20;;
14903;SDS011;7543;53.148;8.234;2024-03-29T13:38:10;2.70;;;1.50;;
14903;SDS011;7543;53.148;8.234;2024-03-29T13:40:39;1.97;;;1.30;;
14903;SDS011;7543;53.148;8.234;2024-03-29T13:43:07;2.23;;;1.60;;
14903;SDS011;7543;53.148;8.234;2024-03-29T13:45:36;3.87;;;1.60;;
14903;SDS011;7543;53.148;8.234;2024-03-29T13:48:04;3.63;;;2.00;;
14903;SDS011;7543;53.148;8.234;2024-03-29T13:50:34;1.70;;;1.60;;
14903;SDS011;7543;53.148;8.234;2024-03-29T13:53:03;3.60;;;1.97;;
14903;SDS011;7543;53.148;8.234;2024-03-29T13:55:31;2.93;;;1.70;;
14903;SDS011;7543;53.148;8.234;2024-03-29T13:58:00;2.10;;;1.87;;
14903;SDS011;7543;53.148;8.234;2024-03-29T14:00:30;2.60;;;2.00;;
14903;SDS011;7543;53.148;8.234;2024-03-29T14:02:59;1.60;;;1.50;;
14903;SDS011;7543;53.148;8.234;2024-03-29T14:05:27;2.30;;;1.60;;
14903;SDS011;7543;53.148;8.234;2024-03-29T14:07:57;1.57;;;1.40;;
14903;SDS011;7543;53.148;8.234;2024-03-29T14:10:25;1.40;;;1.30;;
14903;SDS011;7543;53.148;8.234;2024-03-29T14:12:53;1.73;;;1.40;;
14903;SDS011;7543;53.148;8.234;2024-03-29T14:15:23;1.67;;;1.43;;
14903;SDS011;7543;53.148;8.234;2024-03-29T14:17:52;1.87;;;1.50;;
14903;SDS011;7543;53.148;8.234;2024-03-29T14:20:20;2.73;;;1.37;;
14903;SDS011;7543;53.148;8.234;2024-03-29T14:22:48;2.03;;;1.40;;
14903;SDS011;7543;53.148;8.234;2024-03-29T14:25:22;3.77;;;1.50;;
14903;SDS011;7543;53.148;8.234;2024-03-29T14:27:50;1.83;;;1.20;;
14903;SDS011;7543;53.148;8.234;2024-03-29T14:30:24;1.20;;;1.00;;
14903;SDS011;7543;53.148;8.234;2024-03-29T14:32:52;1.33;;;1.00;;
14903;SDS011;7543;53.148;8.234;2024-03-29T14:35:21;1.53;;;1.00;;
14903;SDS011;7543;53.148;8.234;2024-03-29T14:37:49;1.20;;;1.10;;
14903;SDS011;7543;53.148;8.234;2024-03-29T14:40:18;3.03;;;1.07;;
14903;SDS011;7543;53.148;8.234;2024-03-29T14:42:47;1.43;;;0.80;;
14903;SDS011;7543;53.148;8.234;2024-03-29T14:45:16;1.70;;;1.00;;
14903;SDS011;7543;53.148;8.234;2024-03-29T14:47:44;2.73;;;1.00;;
14903;SDS011;7543;53.148;8.234;2024-03-29T14:50:12;1.43;;;0.83;;
14903;SDS011;7543;53.148;8.234;2024-03-29T14:52:42;1.37;;;0.77;;
14903;SDS011;7543;53.148;8.234;2024-03-29T14:55:10;0.67;;;0.63;;
14903;SDS011;7543;53.148;8.234;2024-03-29T14:57:38;1.60;;;0.90;;
14903;SDS011;7543;53.148;8.234;2024-03-29T15:00:08;0.90;;;0.60;;
14903;SDS011;7543;53.148;8.234;2024-03-29T15:02:37;1.40;;;0.70;;
14903;SDS011;7543;53.148;8.234;2024-03-29T15:05:06;0.87;;;0.70;;
14903;SDS011;7543;53.148;8.234;2024-03-29T15:07:38;1.80;;;0.80;;
14903;SDS011;7543;53.148;8.234;2024-03-29T15:10:06;2.50;;;0.70;;